sensor_id;sensor_type;location;lat;lon;timestamp;P1;durP1;ratioP1;P2;durP2;ratioP2
72209;SDS011;60113;48.762;12.302;2023-04-29T00:00:25;1.55;;;1.02;;
72209;SDS011;60113;48.762;12.302;2023-04-29T00:02:51;1.63;;;1.00;;
72209;SDS011;60113;48.762;12.302;2023-04-29T00:05:17;1.10;;;0.90;;
72209;SDS011;60113;48.762;12.302;2023-04-29T00:07:42;1.50;;;1.10;;
72209;SDS011;60113;48.762;12.302;2023-04-29T00:10:08;0.98;;;0.88;;
72209;SDS011;60113;48.762;12.302;2023-04-29T00:12:34;1.55;;;1.13;;
72209;SDS011;60113;48.762;12.302;2023-04-29T00:15:00;1.40;;;1.10;;
72209;SDS011;60113;48.762;12.302;2023-04-29T00:17:26;1.13;;;0.90;;
72209;SDS011;60113;48.762;12.302;2023-04-29T00:19:52;1.90;;;1.20;;
72209;SDS011;60113;48.762;12.302;2023-04-29T00:22:18;1.02;;;0.85;;
72209;SDS011;60113;48.762;12.302;2023-04-29T00:24:45;1.60;;;1.15;;
72209;SDS011;60113;48.762;12.302;2023-04-29T00:27:11;1.45;;;0.82;;
72209;SDS011;60113;48.762;12.302;2023-04-29T00:29:36;1.65;;;1.20;;
72209;SDS011;60113;48.762;12.302;2023-04-29T00:32:02;3.00;;;1.77;;
72209;SDS011;60113;48.762;12.302;2023-04-29T00:34:28;3.78;;;1.08;;
72209;SDS011;60113;48.762;12.302;2023-04-29T00:36:53;1.40;;;1.10;;
72209;SDS011;60113;48.762;12.302;2023-04-29T00:39:19;1.10;;;0.90;;
72209;SDS011;60113;48.762;12.302;2023-04-29T00:41:44;1.38;;;1.02;;
72209;SDS011;60113;48.762;12.302;2023-04-29T00:44:10;1.33;;;1.02;;
72209;SDS011;60113;48.762;12.302;2023-04-29T00:46:35;2.08;;;1.20;;
72209;SDS011;60113;48.762;12.302;2023-04-29T00:49:01;3.83;;;1.30;;
72209;SDS011;60113;48.762;12.302;2023-04-29T00:51:27;1.67;;;0.75;;
72209;SDS011;60113;48.762;12.302;2023-04-29T00:53:54;1.25;;;1.00;;
72209;SDS011;60113;48.762;12.302;2023-04-29T00:56:20;2.13;;;1.27;;
72209;SDS011;60113;48.762;12.302;2023-04-29T00:58:46;1.55;;;1.13;;
72209;SDS011;60113;48.762;12.302;2023-04-29T01:01:14;1.60;;;1.20;;
72209;SDS011;60113;48.762;12.302;2023-04-29T01:03:48;1.73;;;1.35;;
72209;SDS011;60113;48.762;12.302;2023-04-29T01:06:19;1.50;;;0.95;;
72209;SDS011;60113;48.762;12.302;2023-04-29T01:09:04;2.28;;;1.60;;
72209;SDS011;60113;48.762;12.302;2023-04-29T01:11:52;1.92;;;1.45;;
72209;SDS011;60113;48.762;12.302;2023-04-29T01:14:28;2.25;;;1.33;;
72209;SDS011;60113;48.762;12.302;2023-04-29T01:17:03;2.20;;;1.42;;
72209;SDS011;60113;48.762;12.302;2023-04-29T01:19:45;2.30;;;1.63;;
72209;SDS011;60113;48.762;12.302;2023-04-29T01:22:12;1.73;;;1.30;;
72209;SDS011;60113;48.762;12.302;2023-04-29T01:24:39;2.38;;;1.40;;
72209;SDS011;60113;48.762;12.302;2023-04-29T01:27:27;8.02;;;1.20;;
72209;SDS011;60113;48.762;12.302;2023-04-29T01:30:06;1.90;;;1.20;;
72209;SDS011;60113;48.762;12.302;2023-04-29T01:35:39;1.42;;;1.10;;
72209;SDS011;60113;48.762;12.302;2023-04-29T01:41:17;1.33;;;1.10;;
72209;SDS011;60113;48.762;12.302;2023-04-29T01:43:59;2.22;;;1.20;;
72209;SDS011;60113;48.762;12.302;2023-04-29T01:46:28;1.83;;;1.30;;
72209;SDS011;60113;48.762;12.302;2023-04-29T01:48:55;6.50;;;1.38;;
72209;SDS011;60113;48.762;12.302;2023-04-29T01:51:20;2.63;;;1.20;;
72209;SDS011;60113;48.762;12.302;2023-04-29T01:53:47;1.50;;;1.17;;
72209;SDS011;60113;48.762;12.302;2023-04-29T01:56:13;1.98;;;1.30;;
72209;SDS011;60113;48.762;12.302;2023-04-29T01:58:38;2.05;;;1.25;;
72209;SDS011;60113;48.762;12.302;2023-04-29T02:01:04;2.17;;;1.42;;
72209;SDS011;60113;48.762;12.302;2023-04-29T02:03:30;1.55;;;1.38;;
72209;SDS011;60113;48.762;12.302;2023-04-29T02:05:55;1.90;;;1.38;;
72209;SDS011;60113;48.762;12.302;2023-04-29T02:08:21;2.60;;;1.30;;
72209;SDS011;60113;48.762;12.302;2023-04-29T02:10:50;1.45;;;1.05;;
72209;SDS011;60113;48.762;12.302;2023-04-29T02:13:20;2.38;;;1.25;;
72209;SDS011;60113;48.762;12.302;2023-04-29T02:15:47;1.85;;;0.80;;
72209;SDS011;60113;48.762;12.302;2023-04-29T02:18:13;2.13;;;1.10;;
72209;SDS011;60113;48.762;12.302;2023-04-29T02:20:39;2.25;;;1.20;;
72209;SDS011;60113;48.762;12.302;2023-04-29T02:23:04;1.05;;;0.80;;
72209;SDS011;60113;48.762;12.302;2023-04-29T02:25:29;1.98;;;1.08;;
72209;SDS011;60113;48.762;12.302;2023-04-29T02:27:55;1.83;;;1.10;;
72209;SDS011;60113;48.762;12.302;2023-04-29T02:30:20;1.30;;;1.00;;
72209;SDS011;60113;48.762;12.302;2023-04-29T02:32:46;2.20;;;1.10;;
72209;SDS011;60113;48.762;12.302;2023-04-29T02:35:11;1.67;;;0.98;;
72209;SDS011;60113;48.762;12.302;2023-04-29T02:37:37;0.98;;;0.80;;
72209;SDS011;60113;48.762;12.302;2023-04-29T02:40:03;0.52;;;0.50;;
72209;SDS011;60113;48.762;12.302;2023-04-29T02:42:29;1.70;;;0.75;;
72209;SDS011;60113;48.762;12.302;2023-04-29T02:44:54;1.27;;;0.73;;
72209;SDS011;60113;48.762;12.302;2023-04-29T02:47:20;0.75;;;0.55;;
72209;SDS011;60113;48.762;12.302;2023-04-29T02:49:45;1.23;;;0.88;;
72209;SDS011;60113;48.762;12.302;2023-04-29T02:52:11;0.95;;;0.77;;
72209;SDS011;60113;48.762;12.302;2023-04-29T02:54:36;1.50;;;1.00;;
72209;SDS011;60113;48.762;12.302;2023-04-29T02:57:02;1.30;;;0.77;;
72209;SDS011;60113;48.762;12.302;2023-04-29T02:59:27;1.42;;;1.10;;
72209;SDS011;60113;48.762;12.302;2023-04-29T03:01:53;1.30;;;1.00;;
72209;SDS011;60113;48.762;12.302;2023-04-29T03:04:18;2.47;;;1.02;;
72209;SDS011;60113;48.762;12.302;2023-04-29T03:06:44;1.52;;;1.02;;
72209;SDS011;60113;48.762;12.302;2023-04-29T03:09:11;1.00;;;0.80;;
72209;SDS011;60113;48.762;12.302;2023-04-29T03:11:38;1.15;;;0.98;;
72209;SDS011;60113;48.762;12.302;2023-04-29T03:14:03;1.23;;;0.90;;
72209;SDS011;60113;48.762;12.302;2023-04-29T03:16:29;2.05;;;1.38;;
72209;SDS011;60113;48.762;12.302;2023-04-29T03:18:56;1.75;;;1.40;;
72209;SDS011;60113;48.762;12.302;2023-04-29T03:21:22;3.47;;;1.50;;
72209;SDS011;60113;48.762;12.302;2023-04-29T03:23:49;1.63;;;1.15;;
72209;SDS011;60113;48.762;12.302;2023-04-29T03:26:14;1.85;;;1.25;;
72209;SDS011;60113;48.762;12.302;2023-04-29T03:28:40;2.78;;;1.65;;
72209;SDS011;60113;48.762;12.302;2023-04-29T03:31:05;2.63;;;1.67;;
72209;SDS011;60113;48.762;12.302;2023-04-29T03:33:31;4.32;;;2.08;;
72209;SDS011;60113;48.762;12.302;2023-04-29T03:35:56;4.13;;;1.88;;
72209;SDS011;60113;48.762;12.302;2023-04-29T03:38:22;4.78;;;1.98;;
72209;SDS011;60113;48.762;12.302;2023-04-29T03:40:48;5.55;;;2.72;;
72209;SDS011;60113;48.762;12.302;2023-04-29T03:43:14;6.13;;;2.47;;
72209;SDS011;60113;48.762;12.302;2023-04-29T03:45:39;4.53;;;2.60;;
72209;SDS011;60113;48.762;12.302;2023-04-29T03:48:05;7.75;;;2.60;;
72209;SDS011;60113;48.762;12.302;2023-04-29T03:50:30;4.22;;;2.35;;
72209;SDS011;60113;48.762;12.302;2023-04-29T03:52:56;5.68;;;2.97;;
72209;SDS011;60113;48.762;12.302;2023-04-29T03:55:22;7.25;;;3.00;;
72209;SDS011;60113;48.762;12.302;2023-04-29T03:57:47;5.18;;;2.90;;
72209;SDS011;60113;48.762;12.302;2023-04-29T04:00:13;5.72;;;3.17;;
72209;SDS011;60113;48.762;12.302;2023-04-29T04:02:39;5.15;;;2.53;;
72209;SDS011;60113;48.762;12.302;2023-04-29T04:05:04;6.47;;;2.85;;
72209;SDS011;60113;48.762;12.302;2023-04-29T04:07:30;7.95;;;2.50;;
72209;SDS011;60113;48.762;12.302;2023-04-29T04:09:55;5.93;;;2.80;;
72209;SDS011;60113;48.762;12.302;2023-04-29T04:12:21;6.47;;;2.88;;
72209;SDS011;60113;48.762;12.302;2023-04-29T04:14:46;6.25;;;3.42;;
72209;SDS011;60113;48.762;12.302;2023-04-29T04:17:12;8.27;;;4.15;;
72209;SDS011;60113;48.762;12.302;2023-04-29T04:19:37;9.15;;;3.70;;
72209;SDS011;60113;48.762;12.302;2023-04-29T04:22:03;10.82;;;5.20;;
72209;SDS011;60113;48.762;12.302;2023-04-29T04:24:28;9.98;;;5.32;;
72209;SDS011;60113;48.762;12.302;2023-04-29T04:26:54;10.07;;;4.90;;
72209;SDS011;60113;48.762;12.302;2023-04-29T04:29:19;7.78;;;4.05;;
72209;SDS011;60113;48.762;12.302;2023-04-29T04:31:45;10.70;;;4.72;;
72209;SDS011;60113;48.762;12.302;2023-04-29T04:34:10;10.98;;;4.60;;
72209;SDS011;60113;48.762;12.302;2023-04-29T04:36:36;7.07;;;4.03;;
72209;SDS011;60113;48.762;12.302;2023-04-29T04:39:01;8.48;;;4.63;;
72209;SDS011;60113;48.762;12.302;2023-04-29T04:41:27;8.32;;;4.32;;
72209;SDS011;60113;48.762;12.302;2023-04-29T04:43:55;8.90;;;4.55;;
72209;SDS011;60113;48.762;12.302;2023-04-29T04:46:21;9.55;;;4.70;;
72209;SDS011;60113;48.762;12.302;2023-04-29T04:48:46;10.00;;;5.05;;
72209;SDS011;60113;48.762;12.302;2023-04-29T04:51:12;8.82;;;4.85;;
72209;SDS011;60113;48.762;12.302;2023-04-29T04:53:38;10.20;;;4.80;;
72209;SDS011;60113;48.762;12.302;2023-04-29T04:56:04;8.55;;;5.05;;
72209;SDS011;60113;48.762;12.302;2023-04-29T04:58:31;11.52;;;5.28;;
72209;SDS011;60113;48.762;12.302;2023-04-29T05:00:57;13.00;;;5.53;;
72209;SDS011;60113;48.762;12.302;2023-04-29T05:03:23;10.55;;;5.32;;
72209;SDS011;60113;48.762;12.302;2023-04-29T05:05:55;8.80;;;5.28;;
72209;SDS011;60113;48.762;12.302;2023-04-29T05:08:22;10.65;;;6.35;;
72209;SDS011;60113;48.762;12.302;2023-04-29T05:10:48;11.20;;;6.03;;
72209;SDS011;60113;48.762;12.302;2023-04-29T05:13:13;22.58;;;9.38;;
72209;SDS011;60113;48.762;12.302;2023-04-29T05:15:39;37.58;;;15.50;;
72209;SDS011;60113;48.762;12.302;2023-04-29T05:18:04;18.25;;;9.80;;
72209;SDS011;60113;48.762;12.302;2023-04-29T05:20:29;20.40;;;9.30;;
72209;SDS011;60113;48.762;12.302;2023-04-29T05:22:55;18.08;;;8.20;;
72209;SDS011;60113;48.762;12.302;2023-04-29T05:25:20;13.90;;;6.95;;
72209;SDS011;60113;48.762;12.302;2023-04-29T05:27:46;19.58;;;7.68;;
72209;SDS011;60113;48.762;12.302;2023-04-29T05:30:11;20.65;;;10.30;;
72209;SDS011;60113;48.762;12.302;2023-04-29T05:32:37;17.45;;;8.85;;
72209;SDS011;60113;48.762;12.302;2023-04-29T05:35:03;18.15;;;8.38;;
72209;SDS011;60113;48.762;12.302;2023-04-29T05:37:29;18.60;;;9.75;;
72209;SDS011;60113;48.762;12.302;2023-04-29T05:39:56;21.60;;;10.85;;
72209;SDS011;60113;48.762;12.302;2023-04-29T05:42:22;18.35;;;10.00;;
72209;SDS011;60113;48.762;12.302;2023-04-29T05:44:48;19.65;;;10.18;;
72209;SDS011;60113;48.762;12.302;2023-04-29T05:47:13;18.58;;;9.68;;
72209;SDS011;60113;48.762;12.302;2023-04-29T05:49:39;14.85;;;8.00;;
72209;SDS011;60113;48.762;12.302;2023-04-29T05:52:04;17.75;;;8.98;;
72209;SDS011;60113;48.762;12.302;2023-04-29T05:54:31;21.48;;;10.02;;
72209;SDS011;60113;48.762;12.302;2023-04-29T05:56:57;14.85;;;7.95;;
72209;SDS011;60113;48.762;12.302;2023-04-29T05:59:26;15.95;;;8.45;;
72209;SDS011;60113;48.762;12.302;2023-04-29T06:01:53;11.55;;;6.82;;
72209;SDS011;60113;48.762;12.302;2023-04-29T06:04:18;11.18;;;6.93;;
72209;SDS011;60113;48.762;12.302;2023-04-29T06:06:44;14.32;;;6.57;;
72209;SDS011;60113;48.762;12.302;2023-04-29T06:09:10;14.13;;;7.78;;
72209;SDS011;60113;48.762;12.302;2023-04-29T06:11:35;12.80;;;7.00;;
72209;SDS011;60113;48.762;12.302;2023-04-29T06:14:01;11.40;;;6.93;;
72209;SDS011;60113;48.762;12.302;2023-04-29T06:16:27;11.07;;;6.97;;
72209;SDS011;60113;48.762;12.302;2023-04-29T06:18:52;9.88;;;5.85;;
72209;SDS011;60113;48.762;12.302;2023-04-29T06:21:18;9.30;;;6.22;;
72209;SDS011;60113;48.762;12.302;2023-04-29T06:23:43;11.98;;;6.28;;
72209;SDS011;60113;48.762;12.302;2023-04-29T06:26:09;9.55;;;5.88;;
72209;SDS011;60113;48.762;12.302;2023-04-29T06:28:34;9.23;;;5.63;;
72209;SDS011;60113;48.762;12.302;2023-04-29T06:31:00;11.93;;;6.95;;
72209;SDS011;60113;48.762;12.302;2023-04-29T06:33:25;10.57;;;6.25;;
72209;SDS011;60113;48.762;12.302;2023-04-29T06:35:51;9.77;;;6.00;;
72209;SDS011;60113;48.762;12.302;2023-04-29T06:38:16;9.00;;;5.97;;
72209;SDS011;60113;48.762;12.302;2023-04-29T06:40:42;11.05;;;5.75;;
72209;SDS011;60113;48.762;12.302;2023-04-29T06:43:07;9.27;;;5.55;;
72209;SDS011;60113;48.762;12.302;2023-04-29T06:45:33;8.23;;;5.57;;
72209;SDS011;60113;48.762;12.302;2023-04-29T06:47:58;10.63;;;5.72;;
72209;SDS011;60113;48.762;12.302;2023-04-29T06:50:24;11.05;;;5.95;;
72209;SDS011;60113;48.762;12.302;2023-04-29T06:52:50;8.80;;;5.65;;
72209;SDS011;60113;48.762;12.302;2023-04-29T06:55:15;8.60;;;4.88;;
72209;SDS011;60113;48.762;12.302;2023-04-29T06:57:41;7.03;;;4.95;;
72209;SDS011;60113;48.762;12.302;2023-04-29T07:00:06;8.38;;;4.80;;
72209;SDS011;60113;48.762;12.302;2023-04-29T07:02:32;8.25;;;5.93;;
72209;SDS011;60113;48.762;12.302;2023-04-29T07:04:58;9.57;;;6.43;;
72209;SDS011;60113;48.762;12.302;2023-04-29T07:07:24;8.10;;;5.65;;
72209;SDS011;60113;48.762;12.302;2023-04-29T07:09:52;9.20;;;5.68;;
72209;SDS011;60113;48.762;12.302;2023-04-29T07:12:18;8.57;;;5.40;;
72209;SDS011;60113;48.762;12.302;2023-04-29T07:14:44;8.05;;;5.75;;
72209;SDS011;60113;48.762;12.302;2023-04-29T07:17:09;10.93;;;5.78;;
72209;SDS011;60113;48.762;12.302;2023-04-29T07:19:35;8.27;;;5.75;;
72209;SDS011;60113;48.762;12.302;2023-04-29T07:22:00;9.95;;;5.70;;
72209;SDS011;60113;48.762;12.302;2023-04-29T07:24:26;12.45;;;5.57;;
72209;SDS011;60113;48.762;12.302;2023-04-29T07:26:51;6.82;;;4.65;;
72209;SDS011;60113;48.762;12.302;2023-04-29T07:29:17;8.23;;;4.90;;
72209;SDS011;60113;48.762;12.302;2023-04-29T07:31:42;6.78;;;4.90;;
72209;SDS011;60113;48.762;12.302;2023-04-29T07:34:08;7.93;;;5.05;;
72209;SDS011;60113;48.762;12.302;2023-04-29T07:36:33;6.57;;;4.63;;
72209;SDS011;60113;48.762;12.302;2023-04-29T07:38:59;7.10;;;4.32;;
72209;SDS011;60113;48.762;12.302;2023-04-29T07:41:25;6.90;;;4.70;;
72209;SDS011;60113;48.762;12.302;2023-04-29T07:43:51;7.00;;;4.32;;
72209;SDS011;60113;48.762;12.302;2023-04-29T07:46:16;8.05;;;4.72;;
72209;SDS011;60113;48.762;12.302;2023-04-29T07:48:42;7.13;;;4.30;;
72209;SDS011;60113;48.762;12.302;2023-04-29T07:51:11;7.00;;;4.43;;
72209;SDS011;60113;48.762;12.302;2023-04-29T07:53:38;8.23;;;3.80;;
72209;SDS011;60113;48.762;12.302;2023-04-29T07:56:07;5.95;;;3.67;;
72209;SDS011;60113;48.762;12.302;2023-04-29T07:58:33;5.32;;;3.55;;
72209;SDS011;60113;48.762;12.302;2023-04-29T08:01:05;5.30;;;3.83;;
72209;SDS011;60113;48.762;12.302;2023-04-29T08:03:34;5.53;;;3.63;;
72209;SDS011;60113;48.762;12.302;2023-04-29T08:06:03;4.95;;;3.63;;
72209;SDS011;60113;48.762;12.302;2023-04-29T08:08:29;5.45;;;3.75;;
72209;SDS011;60113;48.762;12.302;2023-04-29T08:10:55;4.25;;;3.03;;
72209;SDS011;60113;48.762;12.302;2023-04-29T08:13:20;4.20;;;2.58;;
72209;SDS011;60113;48.762;12.302;2023-04-29T08:15:46;4.72;;;3.03;;
72209;SDS011;60113;48.762;12.302;2023-04-29T08:18:11;3.88;;;2.60;;
72209;SDS011;60113;48.762;12.302;2023-04-29T08:20:37;4.47;;;3.10;;
72209;SDS011;60113;48.762;12.302;2023-04-29T08:23:02;3.63;;;2.50;;
72209;SDS011;60113;48.762;12.302;2023-04-29T08:25:28;3.63;;;2.50;;
72209;SDS011;60113;48.762;12.302;2023-04-29T08:27:54;5.40;;;2.83;;
72209;SDS011;60113;48.762;12.302;2023-04-29T08:30:20;4.90;;;2.70;;
72209;SDS011;60113;48.762;12.302;2023-04-29T08:32:46;3.25;;;2.60;;
72209;SDS011;60113;48.762;12.302;2023-04-29T08:35:11;3.50;;;2.63;;
72209;SDS011;60113;48.762;12.302;2023-04-29T08:37:37;4.53;;;2.72;;
72209;SDS011;60113;48.762;12.302;2023-04-29T08:40:03;19.50;;;10.95;;
72209;SDS011;60113;48.762;12.302;2023-04-29T08:42:36;2.90;;;2.20;;
72209;SDS011;60113;48.762;12.302;2023-04-29T08:45:02;3.67;;;2.53;;
72209;SDS011;60113;48.762;12.302;2023-04-29T08:47:29;3.85;;;2.83;;
72209;SDS011;60113;48.762;12.302;2023-04-29T08:49:55;4.78;;;2.20;;
72209;SDS011;60113;48.762;12.302;2023-04-29T08:52:26;3.50;;;2.00;;
72209;SDS011;60113;48.762;12.302;2023-04-29T08:54:51;4.57;;;2.13;;
72209;SDS011;60113;48.762;12.302;2023-04-29T08:57:17;3.80;;;2.40;;
72209;SDS011;60113;48.762;12.302;2023-04-29T08:59:44;3.78;;;2.28;;
72209;SDS011;60113;48.762;12.302;2023-04-29T09:02:10;3.17;;;2.60;;
72209;SDS011;60113;48.762;12.302;2023-04-29T09:05:26;4.55;;;3.47;;
72209;SDS011;60113;48.762;12.302;2023-04-29T09:07:33;3.95;;;3.08;;
72209;SDS011;60113;48.762;12.302;2023-04-29T09:09:59;6.80;;;2.88;;
72209;SDS011;60113;48.762;12.302;2023-04-29T09:12:28;4.00;;;3.00;;
72209;SDS011;60113;48.762;12.302;2023-04-29T09:14:54;3.92;;;2.90;;
72209;SDS011;60113;48.762;12.302;2023-04-29T09:17:37;3.85;;;2.92;;
72209;SDS011;60113;48.762;12.302;2023-04-29T09:22:47;3.75;;;2.50;;
72209;SDS011;60113;48.762;12.302;2023-04-29T09:25:13;2.58;;;2.33;;
72209;SDS011;60113;48.762;12.302;2023-04-29T09:27:43;3.10;;;2.05;;
72209;SDS011;60113;48.762;12.302;2023-04-29T09:30:09;3.30;;;2.30;;
72209;SDS011;60113;48.762;12.302;2023-04-29T09:32:36;3.20;;;2.28;;
72209;SDS011;60113;48.762;12.302;2023-04-29T09:38:07;2.90;;;2.20;;
72209;SDS011;60113;48.762;12.302;2023-04-29T09:40:33;2.50;;;1.73;;
72209;SDS011;60113;48.762;12.302;2023-04-29T09:42:59;3.78;;;2.05;;
72209;SDS011;60113;48.762;12.302;2023-04-29T09:45:34;2.97;;;2.22;;
72209;SDS011;60113;48.762;12.302;2023-04-29T09:48:08;2.30;;;1.90;;
72209;SDS011;60113;48.762;12.302;2023-04-29T09:50:34;2.38;;;2.00;;
72209;SDS011;60113;48.762;12.302;2023-04-29T09:53:01;2.55;;;2.08;;
72209;SDS011;60113;48.762;12.302;2023-04-29T09:55:27;2.75;;;2.10;;
72209;SDS011;60113;48.762;12.302;2023-04-29T09:57:53;3.08;;;2.35;;
72209;SDS011;60113;48.762;12.302;2023-04-29T10:00:19;2.78;;;2.03;;
72209;SDS011;60113;48.762;12.302;2023-04-29T10:02:45;2.42;;;1.92;;
72209;SDS011;60113;48.762;12.302;2023-04-29T10:05:13;3.00;;;2.40;;
72209;SDS011;60113;48.762;12.302;2023-04-29T10:07:42;2.85;;;2.40;;
72209;SDS011;60113;48.762;12.302;2023-04-29T10:10:08;4.13;;;2.60;;
72209;SDS011;60113;48.762;12.302;2023-04-29T10:12:35;3.50;;;2.60;;
72209;SDS011;60113;48.762;12.302;2023-04-29T10:15:09;3.58;;;2.85;;
72209;SDS011;60113;48.762;12.302;2023-04-29T10:17:54;5.18;;;2.97;;
72209;SDS011;60113;48.762;12.302;2023-04-29T10:20:23;5.55;;;3.55;;
72209;SDS011;60113;48.762;12.302;2023-04-29T10:22:53;4.55;;;4.00;;
72209;SDS011;60113;48.762;12.302;2023-04-29T10:25:21;4.03;;;3.33;;
72209;SDS011;60113;48.762;12.302;2023-04-29T10:27:48;4.97;;;4.43;;
72209;SDS011;60113;48.762;12.302;2023-04-29T10:30:17;5.70;;;4.38;;
72209;SDS011;60113;48.762;12.302;2023-04-29T10:32:44;5.72;;;4.40;;
72209;SDS011;60113;48.762;12.302;2023-04-29T10:35:11;8.20;;;4.07;;
72209;SDS011;60113;48.762;12.302;2023-04-29T10:37:44;4.70;;;3.83;;
72209;SDS011;60113;48.762;12.302;2023-04-29T10:40:13;7.13;;;4.07;;
72209;SDS011;60113;48.762;12.302;2023-04-29T10:42:51;4.57;;;3.85;;
72209;SDS011;60113;48.762;12.302;2023-04-29T10:45:21;10.38;;;4.07;;
72209;SDS011;60113;48.762;12.302;2023-04-29T10:53:14;3.92;;;2.88;;
72209;SDS011;60113;48.762;12.302;2023-04-29T10:55:41;4.35;;;3.00;;
72209;SDS011;60113;48.762;12.302;2023-04-29T11:01:16;3.88;;;3.13;;
72209;SDS011;60113;48.762;12.302;2023-04-29T11:03:54;4.03;;;2.78;;
72209;SDS011;60113;48.762;12.302;2023-04-29T11:09:20;2.40;;;1.90;;
72209;SDS011;60113;48.762;12.302;2023-04-29T11:14:24;2.30;;;1.80;;
72209;SDS011;60113;48.762;12.302;2023-04-29T11:17:15;3.67;;;1.57;;
72209;SDS011;60113;48.762;12.302;2023-04-29T11:19:42;1.83;;;1.42;;
72209;SDS011;60113;48.762;12.302;2023-04-29T11:24:51;1.50;;;1.17;;
72209;SDS011;60113;48.762;12.302;2023-04-29T11:27:29;1.30;;;1.20;;
72209;SDS011;60113;48.762;12.302;2023-04-29T11:30:03;1.83;;;1.40;;
72209;SDS011;60113;48.762;12.302;2023-04-29T11:35:16;2.15;;;1.52;;
72209;SDS011;60113;48.762;12.302;2023-04-29T11:37:44;3.13;;;1.33;;
72209;SDS011;60113;48.762;12.302;2023-04-29T11:40:11;2.90;;;1.42;;
72209;SDS011;60113;48.762;12.302;2023-04-29T11:42:42;1.92;;;1.40;;
72209;SDS011;60113;48.762;12.302;2023-04-29T11:45:09;2.13;;;1.25;;
72209;SDS011;60113;48.762;12.302;2023-04-29T11:47:36;1.50;;;1.33;;
72209;SDS011;60113;48.762;12.302;2023-04-29T11:50:05;5.10;;;1.15;;
72209;SDS011;60113;48.762;12.302;2023-04-29T11:52:34;1.90;;;1.38;;
72209;SDS011;60113;48.762;12.302;2023-04-29T11:55:01;1.65;;;1.38;;
72209;SDS011;60113;48.762;12.302;2023-04-29T11:57:28;1.92;;;1.35;;
72209;SDS011;60113;48.762;12.302;2023-04-29T11:59:53;3.05;;;1.30;;
72209;SDS011;60113;48.762;12.302;2023-04-29T12:02:22;1.75;;;1.15;;
72209;SDS011;60113;48.762;12.302;2023-04-29T12:04:53;1.70;;;1.23;;
72209;SDS011;60113;48.762;12.302;2023-04-29T12:07:19;1.17;;;1.08;;
72209;SDS011;60113;48.762;12.302;2023-04-29T12:09:44;2.20;;;1.23;;
72209;SDS011;60113;48.762;12.302;2023-04-29T12:12:11;1.25;;;1.02;;
72209;SDS011;60113;48.762;12.302;2023-04-29T12:14:38;1.20;;;0.90;;
72209;SDS011;60113;48.762;12.302;2023-04-29T12:17:05;1.77;;;1.15;;
72209;SDS011;60113;48.762;12.302;2023-04-29T12:19:31;1.77;;;1.23;;
72209;SDS011;60113;48.762;12.302;2023-04-29T12:21:58;1.33;;;1.05;;
72209;SDS011;60113;48.762;12.302;2023-04-29T12:24:24;4.60;;;1.10;;
72209;SDS011;60113;48.762;12.302;2023-04-29T12:26:49;1.67;;;1.42;;
72209;SDS011;60113;48.762;12.302;2023-04-29T12:29:15;1.67;;;1.40;;
72209;SDS011;60113;48.762;12.302;2023-04-29T12:31:41;1.75;;;1.33;;
72209;SDS011;60113;48.762;12.302;2023-04-29T12:34:07;1.45;;;1.10;;
72209;SDS011;60113;48.762;12.302;2023-04-29T12:36:33;2.20;;;1.17;;
72209;SDS011;60113;48.762;12.302;2023-04-29T12:38:58;1.20;;;1.10;;
72209;SDS011;60113;48.762;12.302;2023-04-29T12:44:33;2.05;;;1.50;;
72209;SDS011;60113;48.762;12.302;2023-04-29T12:47:10;1.35;;;1.15;;
72209;SDS011;60113;48.762;12.302;2023-04-29T12:52:06;1.23;;;0.80;;
72209;SDS011;60113;48.762;12.302;2023-04-29T12:54:35;1.30;;;1.00;;
72209;SDS011;60113;48.762;12.302;2023-04-29T12:57:01;2.30;;;1.23;;
72209;SDS011;60113;48.762;12.302;2023-04-29T12:59:26;1.33;;;1.02;;
72209;SDS011;60113;48.762;12.302;2023-04-29T13:01:52;1.55;;;1.20;;
72209;SDS011;60113;48.762;12.302;2023-04-29T13:04:17;2.38;;;1.38;;
72209;SDS011;60113;48.762;12.302;2023-04-29T13:06:43;1.88;;;1.38;;
72209;SDS011;60113;48.762;12.302;2023-04-29T13:09:08;1.48;;;1.00;;
72209;SDS011;60113;48.762;12.302;2023-04-29T13:11:38;2.28;;;1.20;;
72209;SDS011;60113;48.762;12.302;2023-04-29T13:14:04;1.10;;;0.93;;
72209;SDS011;60113;48.762;12.302;2023-04-29T13:16:33;1.33;;;0.93;;
72209;SDS011;60113;48.762;12.302;2023-04-29T13:18:59;1.67;;;1.02;;
72209;SDS011;60113;48.762;12.302;2023-04-29T13:21:25;1.10;;;0.93;;
72209;SDS011;60113;48.762;12.302;2023-04-29T13:23:52;1.20;;;0.90;;
72209;SDS011;60113;48.762;12.302;2023-04-29T13:26:20;0.88;;;0.63;;
72209;SDS011;60113;48.762;12.302;2023-04-29T13:28:47;0.80;;;0.77;;
72209;SDS011;60113;48.762;12.302;2023-04-29T13:31:13;1.63;;;0.80;;
72209;SDS011;60113;48.762;12.302;2023-04-29T13:33:38;1.30;;;0.80;;
72209;SDS011;60113;48.762;12.302;2023-04-29T13:36:04;1.55;;;0.95;;
72209;SDS011;60113;48.762;12.302;2023-04-29T13:38:30;1.20;;;1.00;;
72209;SDS011;60113;48.762;12.302;2023-04-29T13:40:56;1.30;;;0.85;;
72209;SDS011;60113;48.762;12.302;2023-04-29T13:43:21;1.77;;;1.05;;
72209;SDS011;60113;48.762;12.302;2023-04-29T13:45:47;1.80;;;1.00;;
72209;SDS011;60113;48.762;12.302;2023-04-29T13:48:12;2.08;;;1.10;;
72209;SDS011;60113;48.762;12.302;2023-04-29T13:50:38;1.52;;;1.10;;
72209;SDS011;60113;48.762;12.302;2023-04-29T13:53:05;2.30;;;1.27;;
72209;SDS011;60113;48.762;12.302;2023-04-29T13:55:32;2.70;;;1.60;;
72209;SDS011;60113;48.762;12.302;2023-04-29T13:57:59;1.75;;;1.50;;
72209;SDS011;60113;48.762;12.302;2023-04-29T14:00:25;1.45;;;1.30;;
72209;SDS011;60113;48.762;12.302;2023-04-29T14:02:51;2.00;;;1.55;;
72209;SDS011;60113;48.762;12.302;2023-04-29T14:05:16;1.73;;;1.40;;
72209;SDS011;60113;48.762;12.302;2023-04-29T14:07:41;1.95;;;1.33;;
72209;SDS011;60113;48.762;12.302;2023-04-29T14:10:07;2.10;;;1.50;;
72209;SDS011;60113;48.762;12.302;2023-04-29T14:12:34;1.95;;;1.13;;
72209;SDS011;60113;48.762;12.302;2023-04-29T14:15:00;1.88;;;1.27;;
72209;SDS011;60113;48.762;12.302;2023-04-29T14:17:25;2.22;;;1.20;;
72209;SDS011;60113;48.762;12.302;2023-04-29T14:19:51;1.17;;;0.93;;
72209;SDS011;60113;48.762;12.302;2023-04-29T14:22:17;3.00;;;1.42;;
72209;SDS011;60113;48.762;12.302;2023-04-29T14:24:42;1.35;;;1.02;;
72209;SDS011;60113;48.762;12.302;2023-04-29T14:27:08;1.15;;;0.90;;
72209;SDS011;60113;48.762;12.302;2023-04-29T14:29:33;1.60;;;1.20;;
72209;SDS011;60113;48.762;12.302;2023-04-29T14:31:59;1.40;;;1.00;;
72209;SDS011;60113;48.762;12.302;2023-04-29T14:34:24;1.38;;;1.02;;
72209;SDS011;60113;48.762;12.302;2023-04-29T14:36:50;1.50;;;0.90;;
72209;SDS011;60113;48.762;12.302;2023-04-29T14:39:15;0.68;;;0.63;;
72209;SDS011;60113;48.762;12.302;2023-04-29T14:41:41;1.10;;;0.80;;
72209;SDS011;60113;48.762;12.302;2023-04-29T14:44:10;0.70;;;0.70;;
72209;SDS011;60113;48.762;12.302;2023-04-29T14:46:36;0.88;;;0.77;;
72209;SDS011;60113;48.762;12.302;2023-04-29T14:49:01;2.88;;;0.80;;
72209;SDS011;60113;48.762;12.302;2023-04-29T14:51:28;0.80;;;0.80;;
72209;SDS011;60113;48.762;12.302;2023-04-29T14:53:53;1.73;;;0.98;;
72209;SDS011;60113;48.762;12.302;2023-04-29T14:56:18;1.55;;;0.73;;
72209;SDS011;60113;48.762;12.302;2023-04-29T14:58:44;6.25;;;0.93;;
72209;SDS011;60113;48.762;12.302;2023-04-29T15:01:09;3.08;;;1.00;;
72209;SDS011;60113;48.762;12.302;2023-04-29T15:03:35;2.35;;;1.20;;
72209;SDS011;60113;48.762;12.302;2023-04-29T15:06:01;1.95;;;1.30;;
72209;SDS011;60113;48.762;12.302;2023-04-29T15:08:28;2.00;;;1.23;;